Latest Weather Observations for Melbourne Airport

IDV60801

Issued at 2:02 pm EDT Tuesday 9 February 2016 (issued every 30 minutes, with the page automatically refreshed every 10 minutes)

About weather observations | Map of weather stations | Latest weather observations for VIC | Other Formats
Station Details ID: 086282 Name: MELBOURNE AIRPORT Lat: -37.67 Lon: 144.83 Height: 113.4 m
Data from the previous 72 hours. | See also: Recent months at Melbourne Airport
Date/Time
EDT
Temp
°C
App
Temp
°C
Dew
Point
Rel
Hum
%
Delta-T
°C
Wind Press
QNH
hPa
Press
MSL
hPa
Rain
since 9 am
mm
Dir
 
Spd
km/h
Gust
km/h
Spd
kts
Gust
kts
09/01:30pm 23.4 20.9 12.2 49 6.4 S 17 28 9 15 1020.0 1019.6 0.0
09/01:00pm 22.5 20.7 12.1 51 5.9 SSE 13 24 7 13 1020.2 1019.8 0.0
09/12:30pm 22.7 20.1 12.1 51 6.0 S 17 24 9 13 1020.5 1020.1 0.0
09/12:00pm 22.4 20.5 11.9 51 5.9 SSE 13 26 7 14 1020.9 1020.5 0.0
09/11:30am 21.4 19.5 11.7 54 5.4 S 13 19 7 10 1021.3 1020.9 0.0
09/11:00am 20.8 17.8 12.1 57 4.9 S 19 26 10 14 1021.5 1021.1 0.0
09/10:30am 20.0 17.3 11.7 59 4.6 S 17 22 9 12 1021.6 1021.2 0.0
09/10:00am 19.5 17.6 11.7 60 4.3 SSW 13 20 7 11 1021.8 1021.4 0.0
09/09:30am 19.5 17.2 11.9 61 4.2 SSE 15 20 8 11 1022.0 1021.6 0.0
09/09:00am 18.1 15.7 11.3 64 3.7 SSE 15 22 8 12 1022.2 1021.8 0.2
09/08:30am 17.5 15.7 11.0 65 3.5 S 11 15 6 8 1022.1 1021.7 0.2
09/08:00am 17.2 15.5 11.1 67 3.3 SSE 11 20 6 11 1022.1 1021.7 0.2
09/07:30am 17.0 15.3 11.1 68 3.2 ESE 11 17 6 9 1021.9 1021.5 0.2
09/07:00am 16.9 14.1 11.4 70 3.0 SSE 17 24 9 13 1021.8 1021.4 0.2
09/06:30am 17.0 13.9 11.7 71 2.9 SSE 19 26 10 14 1021.6 1021.2 0.2
09/06:00am 17.1 14.1 11.8 71 2.9 SSE 19 26 10 14 1021.4 1021.0 0.2
09/05:30am 17.0 14.0 12.1 73 2.7 S 19 24 10 13 1021.3 1020.9 0.2
09/05:00am 17.2 15.0 12.1 72 2.8 S 15 19 8 10 1021.4 1021.0 0.2
09/04:30am 17.3 15.1 12.2 72 2.8 S 15 19 8 10 1021.3 1020.9 0.2
09/04:00am 17.6 14.7 12.2 70 3.0 SE 19 26 10 14 1021.4 1021.0 0.2
09/03:30am 17.7 15.1 12.1 69 3.1 S 17 26 9 14 1021.5 1021.1 0.2
09/03:00am 17.7 15.2 12.3 70 3.0 SSE 17 26 9 14 1021.6 1021.2 0.2
09/02:30am 17.7 15.2 12.3 70 3.0 SSE 17 24 9 13 1021.7 1021.3 0.2
09/02:00am 17.3 15.6 12.4 73 2.7 S 13 17 7 9 1021.9 1021.5 0.2
09/01:30am 17.6 16.0 12.8 73 2.7 S 13 17 7 9 1022.3 1021.9 0.2
09/01:00am 17.7 15.5 13.3 75 2.5 S 17 20 9 11 1022.6 1022.2 0.2
09/12:30am 17.7 15.8 12.9 73 2.7 S 15 17 8 9 1022.8 1022.4 0.2
09/12:00am 17.8 14.4 12.6 71 2.9 S 22 30 12 16 1023.0 1022.6 0.2
 
Date/Time
EDT
Temp
°C
App
Temp
°C
Dew
Point
Rel
Hum
%
Delta-T
°C
Wind Press
QNH
hPa
Press
MSL
hPa
Rain
since 9 am
mm
Dir
 
Spd
km/h
Gust
km/h
Spd
kts
Gust
kts
08/11:30pm 18.2 15.8 12.7 70 3.1 S 17 22 9 12 1023.2 1022.8 0.2
08/11:00pm 17.8 15.1 12.8 72 2.8 S 19 28 10 15 1023.3 1022.9 0.2
08/10:30pm 18.1 15.3 13.1 72 2.8 S 20 30 11 16 1023.3 1022.9 0.2
08/10:00pm 18.3 15.5 13.2 72 2.9 S 20 32 11 17 1023.3 1022.9 0.2
08/09:30pm 18.0 15.5 13.4 74 2.6 S 19 26 10 14 1023.1 1022.7 0.2
08/09:00pm 18.0 14.8 13.2 73 2.7 S 22 30 12 16 1022.7 1022.3 0.2
08/08:30pm 18.4 15.5 12.9 70 3.1 S 20 30 11 16 1022.5 1022.1 0.2
08/08:00pm 19.3 15.7 12.9 66 3.6 S 24 32 13 17 1022.1 1021.7 0.2
08/07:30pm 20.1 16.4 12.7 62 4.2 S 24 33 13 18 1021.9 1021.5 0.2
08/07:00pm 20.8 16.6 12.3 58 4.8 SSE 26 33 14 18 1021.6 1021.2 0.2
08/06:30pm 21.2 17.0 12.3 57 5.0 S 26 32 14 17 1021.5 1021.1 0.2
08/06:00pm 21.7 17.7 13.0 57 5.0 S 26 39 14 21 1021.4 1021.0 0.2
08/05:30pm 22.9 19.1 12.4 51 6.0 S 24 32 13 17 1021.4 1021.0 0.2
08/05:00pm 22.2 18.7 12.1 52 5.7 S 22 33 12 18 1021.6 1021.2 0.2
08/04:30pm 23.0 18.5 12.5 51 6.0 S 28 37 15 20 1021.8 1021.4 0.2
08/04:00pm 23.5 19.7 12.5 50 6.3 S 24 35 13 19 1021.8 1021.4 0.2
08/03:30pm 23.5 19.5 11.8 47 6.6 S 24 32 13 17 1021.9 1021.5 0.2
08/03:00pm 23.8 20.1 11.6 46 6.9 S 22 33 12 18 1021.9 1021.5 0.2
08/02:30pm 23.1 19.1 10.4 44 7.0 S 22 33 12 18 1022.0 1021.6 0.2
08/02:00pm 23.1 20.0 12.2 50 6.2 S 20 28 11 15 1022.2 1021.8 0.2
08/01:30pm 22.4 19.6 11.5 50 6.1 SSE 17 30 9 16 1022.4 1022.0 0.2
08/01:00pm 22.2 19.7 12.3 53 5.6 S 17 28 9 15 1022.5 1022.1 0.2
08/12:30pm 21.4 18.5 12.8 58 4.9 S 20 30 11 16 1022.8 1022.4 0.0
08/12:00pm 21.2 19.3 13.0 59 4.7 SSE 15 20 8 11 1022.8 1022.4 0.0
08/11:30am 20.9 19.3 12.8 60 4.6 S 13 19 7 10 1023.0 1022.6 0.0
08/11:00am 20.5 18.4 12.5 60 4.5 SSW 15 26 8 14 1023.0 1022.6 0.0
08/10:30am 20.2 18.4 13.4 65 3.9 S 15 19 8 10 1023.0 1022.6 0.0
08/10:00am 19.2 17.6 13.8 71 3.1 SSW 15 19 8 10 1022.8 1022.4 0.0
08/09:30am 18.9 17.5 14.4 75 2.6 SSW 15 19 8 10 1022.6 1022.2 0.0
08/09:00am 18.6 17.7 14.8 78 2.2 SSW 13 17 7 9 1022.4 1022.0 0.0
08/08:30am 18.2 17.3 14.9 81 1.9 SW 13 15 7 8 1022.2 1021.8 0.0
08/08:00am 18.1 17.6 14.8 81 1.9 SW 11 13 6 7 1021.9 1021.5 0.0
08/07:30am 18.0 17.9 14.9 82 1.8 SW 9 13 5 7 1021.7 1021.3 0.0
08/07:00am 17.8 17.8 15.1 84 1.6 SSW 9 13 5 7 1021.6 1021.2 0.0
08/06:30am 17.7 17.3 15.3 86 1.4 SSW 11 13 6 7 1021.3 1020.9 0.0
08/06:00am 17.3 17.4 15.6 90 1.0 SW 9 11 5 6 1021.0 1020.6 0.0
08/05:30am 16.5 17.1 15.3 93 0.7 SW 6 7 3 4 1020.7 1020.3 0.0
08/05:00am 16.4 16.3 15.0 91 0.8 WSW 9 11 5 6 1020.6 1020.2 0.0
08/04:30am 16.3 16.2 14.9 91 0.8 WSW 9 11 5 6 1020.5 1020.1 0.0
08/04:00am 16.8 16.8 15.1 90 1.0 SW 9 11 5 6 1020.5 1020.1 0.0
08/03:30am 17.2 16.8 15.1 87 1.2 SSW 11 13 6 7 1020.6 1020.2 0.0
08/03:00am 18.0 16.9 15.3 84 1.6 S 15 20 8 11 1020.7 1020.3 0.0
08/02:30am 18.3 18.2 15.9 86 1.4 SSW 11 15 6 8 1020.9 1020.5 0.0
08/02:00am 18.4 17.9 15.9 85 1.5 SSW 13 17 7 9 1020.9 1020.5 0.0
08/01:30am 18.4 17.6 16.0 86 1.4 SW 15 19 8 10 1020.9 1020.5 0.0
08/01:00am 18.6 17.8 16.1 85 1.5 SW 15 19 8 10 1020.8 1020.4 0.0
08/12:30am 18.7 17.9 16.2 85 1.5 SSW 15 19 8 10 1020.5 1020.1 0.0
08/12:00am 18.2 18.1 16.0 87 1.3 SW 11 11 6 6 1020.4 1020.0 0.0
 
Date/Time
EDT
Temp
°C
App
Temp
°C
Dew
Point
Rel
Hum
%
Delta-T
°C
Wind Press
QNH
hPa
Press
MSL
hPa
Rain
since 9 am
mm
Dir
 
Spd
km/h
Gust
km/h
Spd
kts
Gust
kts
07/11:48pm 17.7 17.5 15.7 88 1.2 SSW 11 13 6 7 1020.3 1019.9 0.0
07/11:30pm 17.9 17.6 15.5 86 1.4 SSW 11 15 6 8 1020.3 1019.9 0.0
07/11:00pm 18.6 18.4 15.6 83 1.8 S 11 13 6 7 1020.2 1019.8 0.0
07/10:30pm 19.0 19.1 15.6 80 2.0 S 9 9 5 5 1020.1 1019.7 0.0
07/10:00pm 19.8 19.2 15.6 77 2.5 S 13 15 7 8 1020.1 1019.7 0.0
07/09:30pm 20.5 19.0 14.3 67 3.6 S 15 17 8 9 1019.8 1019.4 0.0
07/09:00pm 21.5 19.6 11.7 53 5.5 S 13 17 7 9 1019.2 1018.8 0.0
07/08:30pm 22.3 19.1 9.8 45 6.8 SSW 17 22 9 12 1018.6 1018.2 0.0
07/08:00pm 23.5 18.6 8.3 37 8.1 SSW 24 32 13 17 1018.2 1017.8 0.0
07/07:30pm 24.2 18.8 8.0 35 8.6 S 26 33 14 18 1017.6 1017.3 0.0
07/07:00pm 24.8 18.9 7.6 33 9.1 SSW 28 37 15 20 1017.3 1017.0 0.0
07/06:30pm 25.2 19.7 10.5 39 8.2 S 30 35 16 19 1016.8 1016.5 0.0
07/06:00pm 26.0 21.6 13.0 44 7.6 S 28 35 15 19 1016.5 1016.2 0.0
07/05:30pm 26.7 23.4 14.0 45 7.6 S 24 33 13 18 1016.1 1015.8 0.0
07/05:00pm 27.6 24.2 14.7 45 7.8 SSE 26 33 14 18 1016.0 1015.6 0.0
07/04:30pm 28.1 24.7 14.8 44 8.1 S 26 30 14 16 1015.6 1015.2 0.0
07/04:00pm 28.8 25.8 14.9 42 8.5 SSE 24 37 13 20 1015.6 1015.2 0.0
07/03:30pm 28.7 26.1 15.8 45 8.0 S 24 32 13 17 1015.7 1015.3 0.0
07/03:00pm 29.4 26.3 15.5 43 8.6 SSE 26 35 14 19 1015.8 1015.4 0.0
07/02:30pm 30.0 27.8 16.0 42 8.7 S 22 28 12 15 1016.0 1015.6 0.0
07/02:00pm 30.9 30.2 15.4 39 9.6 S 13 24 7 13 1016.1 1015.8 0.0
07/01:30pm 30.4 30.2 16.8 44 8.6 SSE 13 19 7 10 1016.2 1015.9 0.0
07/01:00pm 29.7 28.9 17.0 46 8.0 S 17 28 9 15 1016.5 1016.2 0.0
07/12:30pm 29.3 28.0 15.9 44 8.3 SSE 17 28 9 15 1016.7 1016.4 0.0
07/12:00pm 29.5 28.4 15.4 42 8.7 SSE 15 24 8 13 1016.9 1016.6 0.0
07/11:30am 28.2 26.4 14.5 43 8.3 S 17 24 9 13 1017.1 1016.8 0.0
07/11:00am 28.8 26.0 13.3 38 9.2 S 20 28 11 15 1017.1 1016.8 0.0
07/10:30am 28.7 26.5 12.1 35 9.7 N 15 28 8 15 1017.2 1016.9 0.0
07/10:00am 27.8 24.6 11.9 37 9.2 N 20 30 11 16 1017.1 1016.8 0.0
07/09:30am 26.9 22.3 12.2 40 8.5 N 28 33 15 18 1017.0 1016.7 0.0
07/09:00am 26.4 21.9 12.7 42 8.0 N 28 33 15 18 1016.8 1016.5 0.0
07/08:30am 24.6 21.1 12.2 46 7.1 N 22 28 12 15 1016.6 1016.3 0.0
07/08:00am 22.6 19.2 11.4 49 6.3 N 20 26 11 14 1016.3 1016.0 0.0
07/07:30am 21.3 18.1 11.9 55 5.3 N 20 26 11 14 1016.0 1015.6 0.0
07/07:00am 19.0 16.1 12.4 65 3.7 N 19 20 10 11 1015.7 1015.3 0.0
07/06:30am 17.8 15.8 12.6 71 2.9 N 15 17 8 9 1015.5 1015.1 0.0
07/06:00am 17.2 15.3 12.9 76 2.4 N 15 17 8 9 1015.2 1014.8 0.0
07/05:30am 17.9 15.9 12.7 71 2.9 N 15 17 8 9 1015.2 1014.8 0.0
07/05:00am 18.4 16.8 12.7 69 3.2 N 13 15 7 8 1015.1 1014.7 0.0
07/04:30am 18.5 17.4 13.0 70 3.1 N 11 15 6 8 1015.1 1014.7 0.0
07/04:00am 19.0 16.7 13.0 68 3.4 N 17 17 9 9 1015.0 1014.6 0.0
07/03:30am 19.0 17.2 13.4 70 3.2 N 15 17 8 9 1015.0 1014.6 0.0
07/03:00am 19.1 17.7 13.3 69 3.3 N 13 15 7 8 1015.1 1014.7 0.0
07/02:30am 19.3 19.5 14.1 72 3.0 NNW 6 11 3 6 1015.1 1014.7 0.0
07/02:00am 19.7 19.7 15.1 75 2.7 N 9 13 5 7 1015.2 1014.8 0.0
07/01:30am 20.9 21.3 15.2 70 3.4 NW 7 9 4 5 1015.4 1015.0 0.0
07/01:00am 20.8 20.4 15.2 70 3.3 NW 11 15 6 8 1015.4 1015.0 0.0
07/12:30am 20.7 20.1 15.7 73 3.0 WNW 13 15 7 8 1015.5 1015.1 0.0
07/12:00am 21.2 20.3 15.9 72 3.2 WNW 15 17 8 9 1015.4 1015.0 0.0
 
Date/Time
EDT
Temp
°C
App
Temp
°C
Dew
Point
Rel
Hum
%
Delta-T
°C
Wind Press
QNH
hPa
Press
MSL
hPa
Rain
since 9 am
mm
Dir
 
Spd
km/h
Gust
km/h
Spd
kts
Gust
kts
06/11:30pm 21.5 19.9 15.1 67 3.8 WNW 17 19 9 10 1015.5 1015.1 0.0
06/11:00pm 22.2 21.8 13.0 56 5.3 W 7 17 4 9 1015.3 1014.9 0.0
06/10:30pm 25.1 24.6 12.7 46 7.2 E 7 11 4 6 1015.0 1014.6 0.0
06/10:00pm 26.0 24.3 12.6 43 7.8 E 13 15 7 8 1014.8 1014.4 0.0
06/09:30pm 26.4 24.2 12.2 41 8.2 E 15 19 8 10 1014.4 1014.0 0.0
06/09:00pm 27.5 25.1 11.5 37 9.2 E 15 17 8 9 1013.9 1013.5 0.0
06/08:30pm 28.9 25.8 10.2 31 10.6 ESE 17 20 9 11 1013.6 1013.2 0.0
06/08:00pm 29.6 26.4 10.0 29 11.1 ESE 17 26 9 14 1013.5 1013.1 0.0
06/07:30pm 30.4 26.9 10.3 28 11.5 ESE 19 26 10 14 1013.2 1012.8 0.0
06/07:00pm 31.2 27.5 7.8 23 12.9 ESE 17 26 9 14 1013.1 1012.7 0.0
06/06:30pm 31.4 27.1 7.0 21 13.3 SE 19 32 10 17 1013.1 1012.7 0.0
06/06:00pm 31.9 27.2 7.6 22 13.4 SE 22 32 12 17 1013.1 1012.7 0.0
06/05:30pm 31.8 27.2 8.3 23 13.1 SE 22 32 12 17 1013.1 1012.7 0.0
06/05:00pm 31.7 28.3 9.3 25 12.7 SE 17 30 9 16 1013.4 1013.0 0.0
06/04:30pm 31.7 28.3 9.3 25 12.7 SE 17 30 9 16 1013.7 1013.3 0.0
06/04:00pm 31.8 29.2 9.4 25 12.7 SE 13 28 7 15 1014.0 1013.6 0.0
06/03:30pm 31.6 28.4 8.5 24 12.9 SSE 15 22 8 12 1014.5 1014.1 0.0
06/03:00pm 31.2 29.3 9.2 25 12.4 E 9 26 5 14 1014.7 1014.3 0.0
06/02:30pm 31.3 28.9 8.8 24 12.6 S 11 24 6 13 1015.0 1014.6 0.0

Other Formats:

Comma delimited format used in spreadsheet applications
http://www.bom.gov.au/fwo/IDV60801/IDV60801.94866.axf

JavaScript Object Notation format (JSON) in row-major order
http://www.bom.gov.au/fwo/IDV60801/IDV60801.94866.json